Time;durP1;ratioP1;P1;durP2;ratioP2;P2;SDS_P1;SDS_P2;PMS_P1;PMS_P2;Temp;Humidity;BMP_temperature;BMP_pressure;BME280_temperature;BME280_humidity;BME280_pressure;Samples;Min_cycle;Max_cycle;Signal;HPM_P1;HPM_P2
2022/06/28 00:01:43;;;;;;;6.20;5.40;;;;;;;;;;102231;1335;22593;-26
2022/06/28 00:04:12;;;;;;;10.60;9.60;;;;;;;;;;102304;1336;22606;-30
2022/06/28 00:06:41;;;;;;;8.60;7.20;;;;;;;;;;102299;1336;22631;-31
2022/06/28 00:09:11;;;;;;;7.70;6.30;;;;;;;;;;102243;1336;22703;-26
2022/06/28 00:11:40;;;;;;;12.30;8.10;;;;;;;;;;102301;1335;22596;-24
2022/06/28 00:16:42;;;;;;;5.00;4.50;;;;;;;;;;102231;1336;22725;-25
2022/06/28 00:19:11;;;;;;;7.80;4.60;;;;;;;;;;102350;1329;22778;-24
2022/06/28 00:21:40;;;;;;;5.50;4.70;;;;;;;;;;102242;1336;22624;-25
2022/06/28 00:24:08;;;;;;;5.60;4.60;;;;;;;;;;102316;1336;22615;-29
2022/06/28 00:26:37;;;;;;;4.50;4.10;;;;;;;;;;102066;1336;22596;-31
2022/06/28 00:29:06;;;;;;;6.10;4.90;;;;;;;;;;102296;1329;22590;-25
2022/06/28 00:31:35;;;;;;;8.80;4.70;;;;;;;;;;102363;1336;22711;-26
2022/06/28 00:34:04;;;;;;;9.80;5.20;;;;;;;;;;102306;1336;22601;-25
2022/06/28 00:36:33;;;;;;;8.50;5.40;;;;;;;;;;102335;1336;22714;-26
2022/06/28 00:39:02;;;;;;;6.60;5.80;;;;;;;;;;102271;1336;22610;-29
2022/06/28 00:41:30;;;;;;;4.80;4.40;;;;;;;;;;102329;1336;22737;-29
2022/06/28 00:43:59;;;;;;;6.20;4.50;;;;;;;;;;102331;1336;22635;-29
2022/06/28 00:46:29;;;;;;;9.30;4.80;;;;;;;;;;102271;1336;22675;-29
2022/06/28 00:48:58;;;;;;;7.90;5.90;;;;;;;;;;101538;1336;1003895;-25
2022/06/28 00:51:27;;;;;;;8.50;4.60;;;;;;;;;;102245;1335;22677;-29
2022/06/28 00:53:56;;;;;;;5.90;4.60;;;;;;;;;;102338;1335;22587;-25
2022/06/28 00:56:25;;;;;;;8.00;5.40;;;;;;;;;;102301;1335;22619;-25
2022/06/28 00:58:55;;;;;;;7.60;5.00;;;;;;;;;;102282;1336;22724;-25
2022/06/28 01:01:24;;;;;;;5.70;5.20;;;;;;;;;;102332;1330;22600;-28
2022/06/28 01:03:53;;;;;;;5.30;4.70;;;;;;;;;;102216;1335;22578;-29
2022/06/28 01:06:22;;;;;;;5.20;4.70;;;;;;;;;;102231;1336;22594;-29
2022/06/28 01:08:51;;;;;;;4.40;3.60;;;;;;;;;;102345;1329;22614;-30
2022/06/28 01:11:20;;;;;;;14.20;4.90;;;;;;;;;;102237;1336;22607;-28
2022/06/28 01:13:49;;;;;;;5.30;4.80;;;;;;;;;;102165;1330;22628;-25
2022/06/28 01:16:18;;;;;;;5.00;4.50;;;;;;;;;;102288;1336;23112;-31
2022/06/28 01:18:47;;;;;;;5.40;4.80;;;;;;;;;;102253;1335;22591;-24
2022/06/28 01:21:16;;;;;;;8.40;6.10;;;;;;;;;;102249;1336;22624;-30
2022/06/28 01:23:46;;;;;;;5.40;4.70;;;;;;;;;;102341;1336;22599;-25
2022/06/28 01:26:16;;;;;;;10.90;4.20;;;;;;;;;;102317;1336;22589;-27
2022/06/28 01:28:45;;;;;;;7.90;3.90;;;;;;;;;;102263;1336;22658;-29
2022/06/28 01:31:14;;;;;;;4.80;4.20;;;;;;;;;;102332;1336;22637;-25
2022/06/28 01:33:42;;;;;;;5.40;4.30;;;;;;;;;;102253;1336;22618;-30
2022/06/28 01:36:11;;;;;;;6.50;4.00;;;;;;;;;;102303;1336;22611;-31
2022/06/28 01:38:40;;;;;;;4.90;4.40;;;;;;;;;;102311;1336;22600;-25
2022/06/28 01:41:32;;;;;;;11.30;5.40;;;;;;;;;;102260;1336;22659;-28
2022/06/28 01:43:58;;;;;;;11.70;5.00;;;;;;;;;;102253;1335;22619;-25
2022/06/28 01:46:27;;;;;;;10.90;4.20;;;;;;;;;;102193;1336;22616;-29
2022/06/28 01:48:56;;;;;;;7.10;4.80;;;;;;;;;;102297;1336;22707;-27
2022/06/28 01:51:25;;;;;;;5.70;4.40;;;;;;;;;;102074;1336;22592;-27
2022/06/28 01:53:54;;;;;;;6.10;5.20;;;;;;;;;;102285;1336;22597;-25
2022/06/28 01:56:23;;;;;;;10.70;5.20;;;;;;;;;;102250;1336;22624;-28
2022/06/28 01:58:51;;;;;;;10.80;4.60;;;;;;;;;;102265;1336;22665;-24
2022/06/28 02:01:20;;;;;;;5.40;4.60;;;;;;;;;;102057;1336;22581;-30
2022/06/28 02:03:51;;;;;;;5.90;5.30;;;;;;;;;;102183;1336;22617;-26
2022/06/28 02:06:20;;;;;;;5.30;4.80;;;;;;;;;;102295;1336;22568;-24
2022/06/28 02:08:49;;;;;;;5.70;5.20;;;;;;;;;;102310;1336;22730;-31
2022/06/28 02:11:18;;;;;;;7.10;4.60;;;;;;;;;;102290;1329;22620;-30
2022/06/28 02:13:47;;;;;;;8.30;3.90;;;;;;;;;;102298;1336;22663;-30
2022/06/28 02:16:16;;;;;;;4.90;4.50;;;;;;;;;;102272;1335;23037;-28
2022/06/28 02:18:45;;;;;;;11.50;4.90;;;;;;;;;;102240;1335;22621;-28
2022/06/28 02:21:14;;;;;;;5.40;4.90;;;;;;;;;;102246;1336;22735;-28
2022/06/28 02:23:43;;;;;;;7.00;5.00;;;;;;;;;;102261;1335;22651;-25
2022/06/28 02:26:13;;;;;;;5.40;4.90;;;;;;;;;;102296;1336;22603;-29
2022/06/28 02:28:42;;;;;;;6.80;4.90;;;;;;;;;;102245;1335;22596;-29
2022/06/28 02:31:12;;;;;;;9.10;5.40;;;;;;;;;;102261;1336;22590;-25
2022/06/28 02:33:41;;;;;;;5.40;4.10;;;;;;;;;;102265;1335;22607;-29
2022/06/28 02:41:14;;;;;;;8.80;6.10;;;;;;;;;;102237;1336;22603;-28
2022/06/28 02:43:43;;;;;;;5.90;5.30;;;;;;;;;;102306;1335;22623;-30
2022/06/28 02:46:12;;;;;;;5.00;4.60;;;;;;;;;;102137;1336;22588;-28
2022/06/28 02:48:43;;;;;;;4.90;4.50;;;;;;;;;;102243;1336;22687;-28
2022/06/28 02:51:11;;;;;;;4.80;4.20;;;;;;;;;;102252;1336;22600;-30
2022/06/28 02:53:40;;;;;;;7.80;4.50;;;;;;;;;;102216;1335;22728;-29
2022/06/28 02:56:09;;;;;;;4.50;4.00;;;;;;;;;;102262;1335;22586;-29
2022/06/28 02:58:38;;;;;;;8.50;5.70;;;;;;;;;;102246;1336;22609;-25
2022/06/28 03:01:07;;;;;;;14.30;5.00;;;;;;;;;;102226;1335;22599;-25
2022/06/28 03:03:44;;;;;;;5.70;5.10;;;;;;;;;;102261;1335;25247;-29
2022/06/28 03:06:13;;;;;;;10.90;5.10;;;;;;;;;;102278;1336;22599;-31
2022/06/28 03:08:41;;;;;;;6.40;5.30;;;;;;;;;;102271;1335;22666;-28
2022/06/28 03:11:10;;;;;;;6.80;5.50;;;;;;;;;;102245;1336;22593;-28
2022/06/28 03:13:39;;;;;;;7.70;6.00;;;;;;;;;;102310;1335;22600;-24
2022/06/28 03:16:08;;;;;;;7.10;5.50;;;;;;;;;;102267;1335;22610;-25
2022/06/28 03:18:37;;;;;;;5.60;4.80;;;;;;;;;;102291;1336;22599;-25
2022/06/28 03:21:06;;;;;;;8.30;5.50;;;;;;;;;;102251;1335;22577;-28
2022/06/28 03:23:34;;;;;;;7.30;5.60;;;;;;;;;;102309;1335;22600;-26
2022/06/28 03:26:03;;;;;;;9.20;5.90;;;;;;;;;;102303;1329;22616;-27
2022/06/28 03:28:32;;;;;;;6.20;5.60;;;;;;;;;;102295;1335;22620;-26
2022/06/28 03:31:01;;;;;;;7.70;6.30;;;;;;;;;;102227;1336;22599;-27
2022/06/28 03:33:30;;;;;;;13.50;5.50;;;;;;;;;;102252;1336;22621;-26
2022/06/28 03:35:59;;;;;;;6.80;5.80;;;;;;;;;;102259;1328;22610;-26
2022/06/28 03:38:28;;;;;;;11.00;6.00;;;;;;;;;;102244;1336;22596;-29
2022/06/28 03:40:57;;;;;;;7.20;6.30;;;;;;;;;;102227;1336;22705;-30
2022/06/28 03:43:25;;;;;;;6.80;6.30;;;;;;;;;;102342;1336;22597;-30
2022/06/28 03:45:54;;;;;;;7.30;6.40;;;;;;;;;;102320;1329;22599;-28
2022/06/28 03:48:23;;;;;;;6.40;5.90;;;;;;;;;;102282;1335;22606;-29
2022/06/28 03:50:52;;;;;;;14.10;5.60;;;;;;;;;;102332;1335;22604;-25
2022/06/28 03:53:21;;;;;;;7.00;5.30;;;;;;;;;;102306;1335;22651;-25
2022/06/28 03:55:50;;;;;;;8.90;6.80;;;;;;;;;;102256;1336;22596;-28
2022/06/28 03:58:19;;;;;;;11.30;6.00;;;;;;;;;;102236;1335;22600;-25
2022/06/28 04:00:47;;;;;;;8.70;6.90;;;;;;;;;;101570;1336;1003145;-30
2022/06/28 04:03:16;;;;;;;11.00;6.40;;;;;;;;;;102323;1336;22735;-25
2022/06/28 04:05:45;;;;;;;6.80;5.40;;;;;;;;;;102222;1336;22725;-30
2022/06/28 04:08:14;;;;;;;5.80;5.30;;;;;;;;;;102339;1335;22590;-25
2022/06/28 04:10:43;;;;;;;7.80;6.50;;;;;;;;;;102312;1336;22674;-25
2022/06/28 04:13:12;;;;;;;7.20;6.60;;;;;;;;;;102313;1336;22667;-25
2022/06/28 04:15:40;;;;;;;11.50;6.50;;;;;;;;;;102236;1336;22589;-29
2022/06/28 04:18:09;;;;;;;7.10;6.30;;;;;;;;;;102270;1336;22618;-29
2022/06/28 04:20:41;;;;;;;5.70;5.00;;;;;;;;;;101631;1336;1002618;-26
2022/06/28 04:23:10;;;;;;;6.60;5.30;;;;;;;;;;102261;1335;22588;-28
2022/06/28 04:25:38;;;;;;;6.50;6.00;;;;;;;;;;102271;1329;22601;-27
2022/06/28 04:28:07;;;;;;;5.80;5.30;;;;;;;;;;102260;1335;22600;-25
2022/06/28 04:30:36;;;;;;;8.30;6.10;;;;;;;;;;102255;1329;22624;-27
2022/06/28 04:33:05;;;;;;;6.10;5.30;;;;;;;;;;102222;1329;22610;-29
2022/06/28 04:35:34;;;;;;;12.00;5.60;;;;;;;;;;102311;1336;22603;-25
2022/06/28 04:38:02;;;;;;;6.30;5.70;;;;;;;;;;102196;1336;22604;-25
2022/06/28 04:40:31;;;;;;;5.30;4.80;;;;;;;;;;102219;1336;22693;-29
2022/06/28 04:43:02;;;;;;;7.30;5.40;;;;;;;;;;102259;1335;22596;-27
2022/06/28 04:45:30;;;;;;;6.80;4.80;;;;;;;;;;102251;1336;22621;-29
2022/06/28 04:47:59;;;;;;;5.90;5.30;;;;;;;;;;102246;1335;22596;-25
2022/06/28 04:50:28;;;;;;;5.60;5.10;;;;;;;;;;102255;1335;22574;-29
2022/06/28 04:52:57;;;;;;;5.50;4.60;;;;;;;;;;102243;1336;22596;-29
2022/06/28 04:55:26;;;;;;;5.00;4.60;;;;;;;;;;102268;1335;22607;-31
2022/06/28 04:57:55;;;;;;;6.80;2.90;;;;;;;;;;102305;1336;22656;-25
2022/06/28 05:00:24;;;;;;;4.90;4.50;;;;;;;;;;102244;1336;22621;-26
2022/06/28 05:02:53;;;;;;;3.70;3.40;;;;;;;;;;102240;1335;22712;-29
2022/06/28 05:05:22;;;;;;;5.60;4.60;;;;;;;;;;102264;1335;22868;-25
2022/06/28 05:07:51;;;;;;;4.10;3.50;;;;;;;;;;102199;1336;22580;-29
2022/06/28 05:10:20;;;;;;;3.50;3.20;;;;;;;;;;102076;1330;22593;-25
2022/06/28 05:12:49;;;;;;;4.30;4.00;;;;;;;;;;102252;1336;22725;-29
2022/06/28 05:15:18;;;;;;;28.50;4.00;;;;;;;;;;102260;1336;22628;-29
2022/06/28 05:17:46;;;;;;;5.80;5.20;;;;;;;;;;102338;1335;23175;-29
2022/06/28 05:20:15;;;;;;;15.40;3.90;;;;;;;;;;102258;1335;22734;-29
2022/06/28 05:22:44;;;;;;;7.40;4.30;;;;;;;;;;102255;1336;22581;-23
2022/06/28 05:25:13;;;;;;;5.30;4.80;;;;;;;;;;102253;1336;22611;-27
2022/06/28 05:27:41;;;;;;;5.90;5.40;;;;;;;;;;102326;1335;22679;-29
2022/06/28 05:30:11;;;;;;;5.50;4.40;;;;;;;;;;102071;1336;22735;-28
2022/06/28 05:32:40;;;;;;;5.00;4.40;;;;;;;;;;102272;1336;22800;-31
2022/06/28 05:35:09;;;;;;;9.60;4.90;;;;;;;;;;102248;1333;22613;-29
2022/06/28 05:37:38;;;;;;;4.40;3.90;;;;;;;;;;102213;1336;22619;-29
2022/06/28 05:40:08;;;;;;;8.40;4.90;;;;;;;;;;102201;1335;22648;-31
2022/06/28 05:42:36;;;;;;;10.90;4.20;;;;;;;;;;102254;1336;22622;-25
2022/06/28 05:45:06;;;;;;;8.70;5.30;;;;;;;;;;102221;1336;22593;-26
2022/06/28 05:47:34;;;;;;;10.90;5.20;;;;;;;;;;102200;1335;22648;-25
2022/06/28 05:50:03;;;;;;;13.80;4.70;;;;;;;;;;102253;1336;22758;-29
2022/06/28 05:52:32;;;;;;;20.80;5.40;;;;;;;;;;102042;1336;22590;-24
2022/06/28 05:55:01;;;;;;;6.90;5.10;;;;;;;;;;102300;1329;22576;-28
2022/06/28 05:57:30;;;;;;;6.60;4.40;;;;;;;;;;102259;1336;22603;-28
2022/06/28 05:59:59;;;;;;;6.20;5.60;;;;;;;;;;102268;1329;22659;-26
2022/06/28 06:02:28;;;;;;;7.80;5.10;;;;;;;;;;102219;1336;22607;-29
2022/06/28 06:04:59;;;;;;;6.10;4.20;;;;;;;;;;102338;1335;25247;-25
2022/06/28 06:07:29;;;;;;;10.90;4.60;;;;;;;;;;102246;1336;25354;-29
2022/06/28 06:09:58;;;;;;;6.80;4.20;;;;;;;;;;102296;1328;22711;-25
2022/06/28 06:12:27;;;;;;;8.20;3.90;;;;;;;;;;102287;1336;22655;-26
2022/06/28 06:14:55;;;;;;;5.30;4.50;;;;;;;;;;102295;1336;22602;-30
2022/06/28 06:17:24;;;;;;;11.40;5.60;;;;;;;;;;102153;1336;244053;-26
2022/06/28 06:19:53;;;;;;;9.40;4.60;;;;;;;;;;102248;1336;22877;-27
2022/06/28 06:22:22;;;;;;;5.20;4.20;;;;;;;;;;102255;1336;22599;-29
2022/06/28 06:24:51;;;;;;;9.00;4.70;;;;;;;;;;102258;1329;22685;-28
2022/06/28 06:27:19;;;;;;;7.50;4.80;;;;;;;;;;102258;1336;22862;-31
2022/06/28 06:29:48;;;;;;;4.50;4.10;;;;;;;;;;102236;1336;22654;-24
2022/06/28 06:32:17;;;;;;;5.00;4.60;;;;;;;;;;102319;1336;22659;-29
2022/06/28 06:34:46;;;;;;;6.50;4.50;;;;;;;;;;102228;1336;22942;-25
2022/06/28 06:37:15;;;;;;;4.70;4.20;;;;;;;;;;102329;1336;22659;-31
2022/06/28 06:39:44;;;;;;;4.20;3.90;;;;;;;;;;102203;1336;22609;-25
2022/06/28 06:42:13;;;;;;;6.20;4.60;;;;;;;;;;102211;1336;22684;-29
2022/06/28 06:44:41;;;;;;;7.00;4.20;;;;;;;;;;102197;1335;22617;-25
2022/06/28 06:47:10;;;;;;;7.60;5.50;;;;;;;;;;102239;1336;22619;-29
2022/06/28 06:49:39;;;;;;;5.70;4.10;;;;;;;;;;102303;1329;22617;-25
2022/06/28 06:52:08;;;;;;;3.90;3.40;;;;;;;;;;102204;1336;22614;-25
2022/06/28 06:54:37;;;;;;;6.50;3.50;;;;;;;;;;102196;1336;22675;-25
2022/06/28 06:57:06;;;;;;;4.60;4.20;;;;;;;;;;102238;1335;22595;-25
2022/06/28 06:59:35;;;;;;;5.30;4.40;;;;;;;;;;102252;1336;22620;-29
2022/06/28 07:02:04;;;;;;;3.90;3.60;;;;;;;;;;102321;1336;22605;-28
2022/06/28 07:04:32;;;;;;;5.40;4.90;;;;;;;;;;102306;1336;22831;-31
2022/06/28 07:07:01;;;;;;;6.30;4.40;;;;;;;;;;102249;1336;22601;-31
2022/06/28 07:09:30;;;;;;;4.80;3.90;;;;;;;;;;102244;1336;22622;-28
2022/06/28 07:11:59;;;;;;;6.20;4.80;;;;;;;;;;102215;1336;22597;-29
2022/06/28 07:14:28;;;;;;;4.90;4.50;;;;;;;;;;102343;1336;22608;-30
2022/06/28 07:16:57;;;;;;;12.80;5.70;;;;;;;;;;102150;1336;22599;-31
2022/06/28 07:19:25;;;;;;;9.60;4.40;;;;;;;;;;102294;1329;22825;-31
2022/06/28 07:21:54;;;;;;;8.00;5.50;;;;;;;;;;102234;1336;22760;-31
2022/06/28 07:24:23;;;;;;;11.90;6.00;;;;;;;;;;102218;1336;22617;-28
2022/06/28 07:26:52;;;;;;;10.10;6.30;;;;;;;;;;102287;1336;22671;-27
2022/06/28 07:29:21;;;;;;;6.30;5.10;;;;;;;;;;102285;1335;22624;-26
2022/06/28 07:31:50;;;;;;;4.70;4.30;;;;;;;;;;102350;1336;22623;-26
2022/06/28 07:34:19;;;;;;;7.60;4.80;;;;;;;;;;102266;1336;22599;-30
2022/06/28 07:36:48;;;;;;;5.00;4.40;;;;;;;;;;102162;1336;22592;-24
2022/06/28 07:39:18;;;;;;;5.40;4.30;;;;;;;;;;102242;1335;22675;-29
2022/06/28 07:41:47;;;;;;;11.30;6.00;;;;;;;;;;102197;1336;22725;-28
2022/06/28 07:44:16;;;;;;;6.00;5.20;;;;;;;;;;102282;1336;22667;-31
2022/06/28 07:46:44;;;;;;;8.50;4.80;;;;;;;;;;102321;1336;22598;-27
2022/06/28 07:49:13;;;;;;;3.50;2.80;;;;;;;;;;102265;1336;22714;-29
2022/06/28 07:54:14;;;;;;;4.10;3.40;;;;;;;;;;102255;1336;22677;-31
2022/06/28 07:56:43;;;;;;;4.00;3.30;;;;;;;;;;102305;1335;22694;-27
2022/06/28 07:59:12;;;;;;;4.10;3.10;;;;;;;;;;102252;1329;22659;-27
2022/06/28 08:01:41;;;;;;;3.20;2.90;;;;;;;;;;102205;1336;22593;-27
2022/06/28 08:04:11;;;;;;;4.20;3.00;;;;;;;;;;102249;1335;22662;-31
2022/06/28 08:06:40;;;;;;;9.50;4.00;;;;;;;;;;102313;1335;22594;-24
2022/06/28 08:09:09;;;;;;;4.20;3.50;;;;;;;;;;102230;1335;22708;-25
2022/06/28 08:11:39;;;;;;;9.60;3.80;;;;;;;;;;101545;1336;1003142;-27
2022/06/28 08:14:11;;;;;;;5.70;2.70;;;;;;;;;;102216;1336;22613;-29
2022/06/28 08:16:40;;;;;;;2.80;2.60;;;;;;;;;;102277;1335;22638;-26
2022/06/28 08:19:09;;;;;;;3.10;2.50;;;;;;;;;;102306;1335;22610;-29
2022/06/28 08:21:38;;;;;;;3.20;2.40;;;;;;;;;;102278;1336;22618;-29
2022/06/28 08:24:07;;;;;;;2.90;2.30;;;;;;;;;;102293;1329;22585;-29
2022/06/28 08:26:42;;;;;;;2.50;2.30;;;;;;;;;;102264;1335;22619;-27
2022/06/28 08:29:11;;;;;;;2.00;1.70;;;;;;;;;;102205;1336;22601;-28
2022/06/28 08:31:40;;;;;;;3.00;1.70;;;;;;;;;;102211;1336;22603;-24
2022/06/28 08:34:09;;;;;;;1.90;1.60;;;;;;;;;;102351;1335;22576;-24
2022/06/28 08:36:39;;;;;;;2.20;2.10;;;;;;;;;;102242;1333;22762;-24
2022/06/28 08:39:08;;;;;;;2.70;2.20;;;;;;;;;;102244;1335;23691;-26
2022/06/28 08:41:36;;;;;;;3.30;2.40;;;;;;;;;;102193;1336;22629;-26
2022/06/28 08:44:05;;;;;;;2.30;2.10;;;;;;;;;;102263;1335;22613;-30
2022/06/28 08:46:34;;;;;;;2.30;2.20;;;;;;;;;;102235;1335;22598;-30
2022/06/28 08:49:04;;;;;;;2.70;2.30;;;;;;;;;;102324;1329;22650;-26
2022/06/28 08:51:35;;;;;;;2.60;2.40;;;;;;;;;;102314;1336;22618;-30
2022/06/28 08:54:04;;;;;;;3.30;2.90;;;;;;;;;;101541;1336;1003487;-30
2022/06/28 08:56:34;;;;;;;4.30;3.90;;;;;;;;;;102249;1335;22681;-26
2022/06/28 08:59:02;;;;;;;7.30;3.90;;;;;;;;;;101585;1335;1003494;-26
2022/06/28 09:01:31;;;;;;;3.90;3.60;;;;;;;;;;102317;1336;22605;-24
2022/06/28 09:04:00;;;;;;;10.30;6.50;;;;;;;;;;102211;1335;22711;-25
2022/06/28 09:06:29;;;;;;;3.90;3.60;;;;;;;;;;102294;1336;22614;-29
2022/06/28 09:08:58;;;;;;;9.90;4.50;;;;;;;;;;102247;1336;22718;-29
2022/06/28 09:11:31;;;;;;;8.60;4.00;;;;;;;;;;102155;1336;24199;-28
2022/06/28 09:13:59;;;;;;;3.10;2.70;;;;;;;;;;102284;1336;22791;-25
2022/06/28 09:16:28;;;;;;;3.10;2.20;;;;;;;;;;102292;1335;22592;-25
2022/06/28 09:18:58;;;;;;;11.80;2.90;;;;;;;;;;102220;1335;22606;-25
2022/06/28 09:21:27;;;;;;;3.00;2.70;;;;;;;;;;102194;1336;22623;-24
2022/06/28 09:23:57;;;;;;;4.80;3.40;;;;;;;;;;102274;1336;22644;-28
2022/06/28 09:26:26;;;;;;;3.30;2.80;;;;;;;;;;102277;1329;22725;-24
2022/06/28 09:28:54;;;;;;;1.80;1.60;;;;;;;;;;102281;1335;22594;-25
2022/06/28 09:31:24;;;;;;;2.60;2.20;;;;;;;;;;102329;1336;22602;-26
2022/06/28 09:33:56;;;;;;;4.30;3.70;;;;;;;;;;102297;1335;22659;-31
2022/06/28 09:36:25;;;;;;;11.30;3.60;;;;;;;;;;102221;1336;22619;-24
2022/06/28 09:38:56;;;;;;;5.00;4.40;;;;;;;;;;102266;1335;22582;-30
2022/06/28 09:41:26;;;;;;;6.20;4.20;;;;;;;;;;102179;1336;22645;-30
2022/06/28 09:43:56;;;;;;;7.00;4.00;;;;;;;;;;102235;1335;22595;-29
2022/06/28 09:46:26;;;;;;;4.60;4.20;;;;;;;;;;102237;1335;24781;-25
2022/06/28 09:48:57;;;;;;;9.20;4.10;;;;;;;;;;102251;1329;22611;-24
2022/06/28 09:51:27;;;;;;;3.80;3.40;;;;;;;;;;102236;1335;22589;-27
2022/06/28 09:53:58;;;;;;;4.80;3.70;;;;;;;;;;102248;1336;22695;-31
2022/06/28 09:56:27;;;;;;;3.30;2.90;;;;;;;;;;102081;1336;22593;-27
2022/06/28 09:58:56;;;;;;;3.20;2.90;;;;;;;;;;102065;1336;22617;-31
2022/06/28 10:01:25;;;;;;;3.40;2.80;;;;;;;;;;102298;1335;22596;-29
2022/06/28 10:03:54;;;;;;;4.80;2.80;;;;;;;;;;102265;1336;22607;-28
2022/06/28 10:06:23;;;;;;;3.90;2.80;;;;;;;;;;102037;1336;22578;-29
2022/06/28 10:08:52;;;;;;;5.70;2.10;;;;;;;;;;102289;1335;22597;-28
2022/06/28 10:11:20;;;;;;;2.20;2.00;;;;;;;;;;102208;1336;22633;-24
2022/06/28 10:16:27;;;;;;;2.00;1.20;;;;;;;;;;102251;1335;22594;-28
2022/06/28 10:18:56;;;;;;;10.20;1.50;;;;;;;;;;102148;1336;25341;-30
2022/06/28 10:21:28;;;;;;;0.80;0.80;;;;;;;;;;102257;1329;22588;-30
2022/06/28 10:23:57;;;;;;;2.50;2.30;;;;;;;;;;102232;1336;22657;-28
2022/06/28 10:26:26;;;;;;;0.90;0.70;;;;;;;;;;102244;1336;22861;-25
2022/06/28 10:28:58;;;;;;;2.20;1.90;;;;;;;;;;102319;1336;22601;-29
2022/06/28 10:31:29;;;;;;;1.60;1.20;;;;;;;;;;102282;1335;22615;-24
2022/06/28 10:33:59;;;;;;;2.30;2.10;;;;;;;;;;102242;1336;22593;-29
2022/06/28 10:36:31;;;;;;;3.60;2.10;;;;;;;;;;102259;1336;22604;-29
2022/06/28 10:39:00;;;;;;;2.90;2.50;;;;;;;;;;102244;1336;22589;-26
2022/06/28 10:41:32;;;;;;;3.10;2.80;;;;;;;;;;102229;1335;22595;-30
2022/06/28 10:44:05;;;;;;;3.90;3.30;;;;;;;;;;102301;1336;22678;-24
2022/06/28 10:46:34;;;;;;;5.60;3.00;;;;;;;;;;102211;1336;22692;-29
2022/06/28 10:49:04;;;;;;;2.40;2.00;;;;;;;;;;102270;1336;22613;-26
2022/06/28 10:51:33;;;;;;;3.50;2.90;;;;;;;;;;102091;1336;22594;-31
2022/06/28 10:54:06;;;;;;;3.10;2.10;;;;;;;;;;102318;1335;22631;-25
2022/06/28 10:56:37;;;;;;;2.80;2.10;;;;;;;;;;102233;1336;22603;-26
2022/06/28 10:59:08;;;;;;;3.30;2.30;;;;;;;;;;101533;1336;1003239;-25
2022/06/28 11:01:40;;;;;;;2.50;2.20;;;;;;;;;;102218;1336;22597;-25
2022/06/28 11:04:10;;;;;;;7.90;2.40;;;;;;;;;;102275;1335;22591;-32
2022/06/28 11:06:39;;;;;;;2.50;2.40;;;;;;;;;;102163;1336;22560;-25
2022/06/28 11:09:08;;;;;;;4.00;2.90;;;;;;;;;;102306;1335;22707;-25
2022/06/28 11:11:57;;;;;;;4.40;2.60;;;;;;;;;;102249;1336;22612;-24
2022/06/28 11:14:27;;;;;;;2.00;1.80;;;;;;;;;;102253;1335;22719;-30
2022/06/28 11:16:56;;;;;;;7.20;2.60;;;;;;;;;;102224;1335;22735;-32
2022/06/28 11:19:25;;;;;;;3.10;2.70;;;;;;;;;;102251;1335;22606;-31
2022/06/28 11:21:55;;;;;;;2.40;1.90;;;;;;;;;;102273;1336;22714;-24
2022/06/28 11:24:24;;;;;;;3.80;3.30;;;;;;;;;;102215;1329;22969;-30
2022/06/28 11:29:25;;;;;;;14.70;3.80;;;;;;;;;;102287;1332;22599;-31
2022/06/28 11:31:54;;;;;;;5.70;3.50;;;;;;;;;;102266;1336;22596;-24
2022/06/28 11:34:24;;;;;;;6.30;3.40;;;;;;;;;;102324;1336;22635;-27
2022/06/28 11:36:55;;;;;;;14.30;4.60;;;;;;;;;;102308;1335;25868;-25
2022/06/28 11:39:24;;;;;;;7.40;3.20;;;;;;;;;;102305;1335;22608;-25
2022/06/28 11:41:54;;;;;;;7.20;3.50;;;;;;;;;;102313;1335;22703;-31
2022/06/28 11:44:23;;;;;;;5.30;3.00;;;;;;;;;;102290;1336;22573;-31
2022/06/28 11:46:52;;;;;;;5.10;2.80;;;;;;;;;;102262;1335;22584;-31
2022/06/28 11:49:24;;;;;;;4.40;3.40;;;;;;;;;;102195;1336;22596;-32
2022/06/28 11:51:53;;;;;;;3.40;2.70;;;;;;;;;;102224;1335;22621;-32
2022/06/28 11:54:24;;;;;;;4.20;3.10;;;;;;;;;;102292;1335;22593;-25
2022/06/28 11:56:53;;;;;;;3.10;2.60;;;;;;;;;;102279;1336;22597;-31
2022/06/28 11:59:42;;;;;;;4.30;3.20;;;;;;;;;;102215;1329;22670;-26
2022/06/28 12:02:31;;;;;;;4.50;3.20;;;;;;;;;;102257;1335;22592;-26
2022/06/28 12:05:00;;;;;;;10.10;6.60;;;;;;;;;;102335;1336;22702;-33
2022/06/28 12:07:32;;;;;;;4.40;3.30;;;;;;;;;;102330;1336;22670;-29
2022/06/28 12:10:01;;;;;;;3.20;2.90;;;;;;;;;;102350;1336;22660;-26
2022/06/28 12:12:30;;;;;;;3.00;2.80;;;;;;;;;;102337;1335;22629;-26
2022/06/28 12:14:58;;;;;;;4.10;3.70;;;;;;;;;;102258;1335;22588;-25
2022/06/28 12:17:27;;;;;;;10.40;3.50;;;;;;;;;;102274;1335;22637;-30
2022/06/28 12:19:56;;;;;;;3.30;3.00;;;;;;;;;;102338;1336;22587;-32
2022/06/28 12:22:25;;;;;;;3.90;2.80;;;;;;;;;;102305;1335;22615;-30
2022/06/28 12:24:55;;;;;;;6.70;3.50;;;;;;;;;;102246;1336;22589;-25
2022/06/28 12:27:27;;;;;;;3.20;2.90;;;;;;;;;;102218;1336;22556;-25
2022/06/28 12:29:56;;;;;;;13.10;3.40;;;;;;;;;;102233;1335;22603;-30
2022/06/28 12:32:25;;;;;;;4.30;3.50;;;;;;;;;;102077;1335;22601;-25
2022/06/28 12:34:58;;;;;;;3.20;3.00;;;;;;;;;;102243;1336;22613;-30
2022/06/28 12:37:27;;;;;;;9.40;3.30;;;;;;;;;;102206;1336;22603;-25
2022/06/28 12:39:56;;;;;;;3.80;2.50;;;;;;;;;;102328;1336;22589;-26
2022/06/28 12:42:27;;;;;;;6.70;3.00;;;;;;;;;;102260;1335;22597;-30
2022/06/28 12:44:56;;;;;;;3.90;2.70;;;;;;;;;;102096;1336;24289;-29
2022/06/28 12:47:25;;;;;;;3.70;3.20;;;;;;;;;;102261;1335;22705;-26
2022/06/28 12:49:54;;;;;;;6.80;3.10;;;;;;;;;;102301;1335;22599;-31
2022/06/28 12:52:23;;;;;;;2.50;2.30;;;;;;;;;;102281;1335;22683;-25
2022/06/28 12:54:52;;;;;;;5.80;3.30;;;;;;;;;;102255;1335;22717;-30
2022/06/28 12:57:20;;;;;;;3.00;2.80;;;;;;;;;;102348;1336;22607;-30
2022/06/28 12:59:50;;;;;;;2.60;2.40;;;;;;;;;;102255;1335;22650;-30
2022/06/28 13:02:18;;;;;;;2.90;2.50;;;;;;;;;;102239;1335;22868;-26
2022/06/28 13:04:47;;;;;;;4.40;3.70;;;;;;;;;;102312;1335;22686;-29
2022/06/28 13:07:18;;;;;;;6.20;2.90;;;;;;;;;;102294;1335;22712;-30
2022/06/28 13:09:47;;;;;;;3.30;3.00;;;;;;;;;;102275;1335;22597;-25
2022/06/28 13:12:16;;;;;;;3.50;3.20;;;;;;;;;;102296;1336;22588;-25
2022/06/28 13:14:45;;;;;;;4.40;2.60;;;;;;;;;;102086;1336;22722;-32
2022/06/28 13:17:14;;;;;;;5.40;3.50;;;;;;;;;;102323;1336;22715;-31
2022/06/28 13:19:44;;;;;;;3.30;3.00;;;;;;;;;;102271;1336;22667;-25
2022/06/28 13:22:12;;;;;;;4.10;3.70;;;;;;;;;;101987;1336;22627;-25
2022/06/28 13:24:41;;;;;;;4.60;4.10;;;;;;;;;;102255;1335;22609;-30
2022/06/28 13:27:10;;;;;;;4.80;2.90;;;;;;;;;;102265;1336;22613;-25
2022/06/28 13:29:39;;;;;;;14.90;3.30;;;;;;;;;;102242;1333;23143;-24
2022/06/28 13:32:08;;;;;;;2.10;2.00;;;;;;;;;;102316;1336;22616;-29
2022/06/28 13:34:37;;;;;;;5.80;4.00;;;;;;;;;;102260;1336;22595;-30
2022/06/28 13:37:06;;;;;;;3.70;3.40;;;;;;;;;;102321;1335;22600;-26
2022/06/28 13:39:35;;;;;;;3.40;2.70;;;;;;;;;;102220;1336;22565;-29
2022/06/28 13:42:05;;;;;;;2.30;2.20;;;;;;;;;;102166;1336;22645;-26
2022/06/28 13:44:34;;;;;;;4.50;3.60;;;;;;;;;;102318;1335;22707;-31
2022/06/28 13:47:03;;;;;;;3.50;2.60;;;;;;;;;;102245;1335;22613;-29
2022/06/28 13:49:32;;;;;;;4.70;4.10;;;;;;;;;;102273;1329;22761;-30
2022/06/28 13:52:01;;;;;;;4.20;3.10;;;;;;;;;;102302;1335;22589;-26
2022/06/28 13:54:29;;;;;;;6.80;3.50;;;;;;;;;;102324;1329;22857;-30
2022/06/28 13:56:58;;;;;;;4.10;3.00;;;;;;;;;;102269;1336;22591;-30
2022/06/28 13:59:27;;;;;;;3.10;2.80;;;;;;;;;;102297;1336;22618;-26
2022/06/28 14:01:56;;;;;;;3.50;3.00;;;;;;;;;;102295;1336;22607;-27
2022/06/28 14:04:25;;;;;;;2.80;2.30;;;;;;;;;;102210;1336;22602;-28
2022/06/28 14:06:54;;;;;;;3.00;2.80;;;;;;;;;;102317;1336;22628;-31
2022/06/28 14:09:23;;;;;;;4.60;2.20;;;;;;;;;;102247;1336;22688;-29
2022/06/28 14:11:51;;;;;;;3.80;3.60;;;;;;;;;;102342;1336;22609;-29
2022/06/28 14:14:20;;;;;;;3.00;2.80;;;;;;;;;;102253;1336;22623;-29
2022/06/28 14:16:49;;;;;;;3.90;3.70;;;;;;;;;;101947;1335;419842;-29
2022/06/28 14:19:18;;;;;;;9.90;3.40;;;;;;;;;;102253;1329;22616;-30
2022/06/28 14:21:47;;;;;;;4.10;3.60;;;;;;;;;;102299;1335;22667;-30
2022/06/28 14:24:16;;;;;;;5.30;3.00;;;;;;;;;;102310;1336;22613;-30
2022/06/28 14:26:45;;;;;;;5.60;3.10;;;;;;;;;;102254;1336;22596;-29
2022/06/28 14:29:13;;;;;;;4.60;4.00;;;;;;;;;;102218;1336;22601;-26
2022/06/28 14:31:42;;;;;;;4.10;2.90;;;;;;;;;;102308;1336;22662;-26
2022/06/28 14:34:13;;;;;;;3.50;3.20;;;;;;;;;;102221;1336;22593;-25
2022/06/28 14:36:42;;;;;;;4.70;3.70;;;;;;;;;;102099;1336;22610;-30
2022/06/28 14:39:12;;;;;;;3.70;3.40;;;;;;;;;;102365;1330;22682;-29
2022/06/28 14:41:41;;;;;;;5.00;2.50;;;;;;;;;;102199;1336;22603;-24
2022/06/28 14:44:11;;;;;;;4.00;3.40;;;;;;;;;;102294;1336;22712;-29
2022/06/28 14:46:39;;;;;;;2.60;2.30;;;;;;;;;;102330;1333;22655;-25
2022/06/28 14:49:08;;;;;;;2.80;2.50;;;;;;;;;;102313;1336;22604;-25
2022/06/28 14:51:37;;;;;;;3.20;2.90;;;;;;;;;;102287;1336;22587;-25
2022/06/28 14:54:06;;;;;;;2.70;2.40;;;;;;;;;;102074;1336;22599;-26
2022/06/28 14:56:35;;;;;;;3.20;2.70;;;;;;;;;;102266;1336;22601;-27